Pagina principale
METAR-TAF:

METAR-TAF

Aeroporti :

Aeroporto di Podgorica

Podgorica, Montenegro

latitudine: 42-26N, longitudine: 019-17E, altezza: 53 m

Osservazione

Il bollettino è stato emesso 22 minuti fa, alle 10:00 UTC
Vento 6 kt da nord-est, variando fra nord/nord-ovest e est/nord-est
Temperature 8°C
Umidità 76%
Pressione 1016 hPa
Visibilità 10 km o più
Nubi sparse ad un'altezza di 3400 ft
Cielo coperto ad un'altezza di 7000 ft
pioggia debole

METAR: LYPG 091000Z 04006KT 340V060 9999 -RA SCT034 OVC070 08/04 Q1016 NOSIG

Ora: 11:22 (10:22 UTC)

Previsione

Il bollettino è stato emesso 5 ore e 22 minuti fa, alle 05:00 UTC
Previsione valida dal 09 alle 06 UTC al 10 alle 06 UTC
Vento 5 kt da nord
Visibilità 10 km o più
Nuvoloso ad un'altezza di 3300 ft
Cielo coperto ad un'altezza di 7000 ft
Temporaneamente
dal 09 alle 09 UTC al 10 alle 06 UTC
Visibilità: 4000 m
pioggia

TAF: LYPG 090500Z 0906/1006 36005KT 9999 BKN033 OVC070 TX10/0913Z TN06/0906Z TEMPO 0909/1006 4000 RA

Osservazioni e previsioni meteorologiche di più di 4000 aeroporti (messaggi METAR e TAF).

Le stazioni disponibili sono rappresentate dai dischi gialli e rossi sulla carta.

Puntare il mouse per vedere il nome della stazione.

Clicca sopra per visualizzare le osservazioni e previsioni meteorologiche.

Per cambiare la mappa : fare clic sui pulsanti verdi con una croce nera per ingrandire, il pulsante verde con un trattino per diminuire, o sulla freccia verde per le mappe adiacenti.


METAR-TAF: